createdAt,value
2023-04-20T00:01:03.871Z,19.90
2023-04-20T00:03:33.079Z,14.23
2023-04-20T00:06:03.226Z,9.63
2023-04-20T00:08:30.095Z,12.60
2023-04-20T00:10:56.916Z,16.57
2023-04-20T00:13:24.762Z,13.17
2023-04-20T00:15:51.580Z,15.93
2023-04-20T00:18:18.360Z,10.20
2023-04-20T00:20:45.266Z,8.50
2023-04-20T00:23:12.087Z,10.60
2023-04-20T00:25:38.858Z,9.30
2023-04-20T00:28:06.102Z,9.37
2023-04-20T00:30:33.094Z,13.23
2023-04-20T00:33:00.042Z,8.67
2023-04-20T00:35:26.900Z,10.23
2023-04-20T00:37:54.678Z,9.40
2023-04-20T00:40:21.576Z,8.90
2023-04-20T00:42:48.436Z,10.27
2023-04-20T00:45:15.406Z,8.20
2023-04-20T00:47:43.246Z,8.53
2023-04-20T00:50:10.891Z,9.80
2023-04-20T00:52:37.690Z,10.57
2023-04-20T00:55:05.116Z,7.33
2023-04-20T00:57:31.958Z,9.00
2023-04-20T00:59:58.780Z,6.67
2023-04-20T01:02:27.730Z,11.43
2023-04-20T01:04:54.669Z,8.87
2023-04-20T01:07:21.620Z,9.73
2023-04-20T01:09:48.444Z,7.13
2023-04-20T01:12:15.241Z,8.60
2023-04-20T01:14:42.066Z,10.63
2023-04-20T01:17:09.632Z,10.37
2023-04-20T01:19:36.494Z,8.97
2023-04-20T01:22:03.329Z,12.87
2023-04-20T01:24:30.115Z,13.03
2023-04-20T01:26:57.727Z,10.67
2023-04-20T01:29:24.591Z,12.63
2023-04-20T01:31:51.726Z,8.93
2023-04-20T01:34:18.630Z,7.80
2023-04-20T01:36:45.774Z,8.77
2023-04-20T01:39:12.636Z,7.23
2023-04-20T01:41:40.158Z,7.37
2023-04-20T01:44:06.974Z,10.47
2023-04-20T01:46:38.925Z,10.87
2023-04-20T01:49:08.905Z,9.43
2023-04-20T01:51:35.812Z,8.20
2023-04-20T01:54:02.745Z,6.47
2023-04-20T01:56:29.604Z,10.43
2023-04-20T01:58:56.412Z,8.30
2023-04-20T02:01:23.312Z,11.50
2023-04-20T02:03:50.683Z,10.43
2023-04-20T02:06:17.733Z,7.20
2023-04-20T02:08:44.629Z,11.57
2023-04-20T02:11:11.558Z,6.70
2023-04-20T02:13:38.508Z,8.80
2023-04-20T02:16:05.802Z,6.77
2023-04-20T02:18:33.141Z,12.60
2023-04-20T02:21:00.977Z,11.97
2023-04-20T02:23:27.802Z,11.43
2023-04-20T02:25:54.924Z,7.33
2023-04-20T02:28:21.748Z,5.97
2023-04-20T02:30:48.648Z,15.80
2023-04-20T02:33:15.476Z,12.10
2023-04-20T02:35:42.288Z,10.67
2023-04-20T02:38:09.226Z,6.53
2023-04-20T02:40:36.243Z,9.80
2023-04-20T02:43:03.157Z,14.60
2023-04-20T02:45:30.879Z,8.37
2023-04-20T02:47:57.832Z,7.03
2023-04-20T02:50:24.700Z,8.23
2023-04-20T02:52:51.517Z,10.63
2023-04-20T02:55:18.418Z,9.17
2023-04-20T02:57:45.238Z,8.20
2023-04-20T03:00:13.746Z,8.93
2023-04-20T03:02:40.884Z,8.47
2023-04-20T03:05:08.154Z,8.47
2023-04-20T03:07:34.993Z,7.97
2023-04-20T03:10:01.815Z,15.63
2023-04-20T03:12:28.613Z,9.60
2023-04-20T03:14:55.526Z,8.77
2023-04-20T03:17:22.345Z,17.10
2023-04-20T03:19:49.564Z,10.27
2023-04-20T03:22:19.379Z,6.00
2023-04-20T03:24:46.915Z,7.07
2023-04-20T03:27:14.241Z,9.73
2023-04-20T03:29:41.080Z,8.47
2023-04-20T03:32:07.929Z,8.70
2023-04-20T03:34:35.790Z,10.60
2023-04-20T03:37:02.626Z,9.60
2023-04-20T03:39:29.601Z,11.23
2023-04-20T03:41:57.478Z,7.83
2023-04-20T03:44:24.316Z,7.73
2023-04-20T03:46:51.207Z,6.33
2023-04-20T03:49:21.465Z,7.23
2023-04-20T03:51:48.253Z,11.10
2023-04-20T03:54:15.080Z,10.20
2023-04-20T03:56:41.925Z,8.43
2023-04-20T03:59:08.688Z,7.60
2023-04-20T04:01:38.700Z,6.70
2023-04-20T04:04:06.150Z,8.10
2023-04-20T04:06:33.236Z,9.57
2023-04-20T04:09:00.089Z,13.73
2023-04-20T04:11:29.994Z,8.03
2023-04-20T04:13:58.102Z,9.37
2023-04-20T04:16:25.149Z,8.10
2023-04-20T04:18:51.963Z,6.03
2023-04-20T04:21:18.779Z,8.87
2023-04-20T04:23:45.748Z,8.23
2023-04-20T04:26:12.861Z,7.63
2023-04-20T04:28:40.471Z,6.53
2023-04-20T04:31:08.376Z,13.27
2023-04-20T04:33:35.187Z,11.33
2023-04-20T04:36:02.585Z,10.53
2023-04-20T04:38:29.519Z,10.60
2023-04-20T04:40:56.442Z,10.10
2023-04-20T04:43:25.672Z,11.80
2023-04-20T04:45:53.579Z,10.07
2023-04-20T04:48:20.424Z,12.03
2023-04-20T04:50:47.478Z,10.70
2023-04-20T04:53:14.324Z,10.47
2023-04-20T04:55:41.175Z,13.73
2023-04-20T04:58:08.066Z,13.10
2023-04-20T05:00:34.956Z,7.83
2023-04-20T05:03:01.964Z,11.37
2023-04-20T05:05:29.004Z,12.67
2023-04-20T05:07:55.882Z,12.07
2023-04-20T05:10:22.749Z,11.23
2023-04-20T05:12:49.564Z,11.20
2023-04-20T05:15:16.672Z,11.80
2023-04-20T05:17:43.551Z,12.00
2023-04-20T05:20:11.841Z,11.97
2023-04-20T05:22:38.655Z,12.80
2023-04-20T05:25:07.518Z,11.37
2023-04-20T05:27:34.433Z,11.47
2023-04-20T05:30:13.037Z,9.80
2023-04-20T05:32:43.776Z,9.03
2023-04-20T05:35:10.841Z,9.33
2023-04-20T05:37:37.743Z,10.83
2023-04-20T05:40:05.101Z,10.53
2023-04-20T05:42:31.939Z,13.00
2023-04-20T05:44:58.745Z,8.00
2023-04-20T05:47:27.496Z,8.30
2023-04-20T05:49:54.440Z,12.03
2023-04-20T05:52:21.221Z,13.23
2023-04-20T05:54:49.141Z,12.30
2023-04-20T05:57:16.025Z,18.87
2023-04-20T05:59:43.134Z,15.30
2023-04-20T06:02:10.010Z,13.60
2023-04-20T06:04:37.070Z,11.37
2023-04-20T06:07:03.981Z,10.30
2023-04-20T06:09:30.959Z,18.67
2023-04-20T06:11:57.753Z,8.10
2023-04-20T06:14:24.621Z,15.43
2023-04-20T06:16:51.466Z,11.43
2023-04-20T06:19:18.454Z,13.37
2023-04-20T06:21:45.571Z,17.47
2023-04-20T06:24:12.507Z,14.80
2023-04-20T06:26:39.301Z,15.40
2023-04-20T06:29:06.352Z,15.03
2023-04-20T06:31:33.193Z,19.53
2023-04-20T06:34:00.186Z,14.43
2023-04-20T06:36:27.825Z,16.97
2023-04-20T06:38:55.282Z,15.87
2023-04-20T06:41:22.179Z,15.97
2023-04-20T06:43:49.090Z,19.97
2023-04-20T06:46:15.929Z,18.47
2023-04-20T06:48:42.796Z,10.13
2023-04-20T06:51:09.589Z,11.20
2023-04-20T06:53:36.374Z,18.90
2023-04-20T06:56:03.503Z,16.90
2023-04-20T06:58:30.330Z,17.10
2023-04-20T07:00:57.170Z,19.07
2023-04-20T07:03:24.495Z,14.93
2023-04-20T07:05:51.568Z,22.73
2023-04-20T07:08:18.591Z,15.97
2023-04-20T07:10:45.415Z,22.87
2023-04-20T07:13:12.211Z,14.03
2023-04-20T07:15:39.118Z,13.43
2023-04-20T07:18:06.520Z,23.23
2023-04-20T07:20:33.449Z,15.73
2023-04-20T07:23:00.421Z,20.53
2023-04-20T07:25:27.397Z,14.43
2023-04-20T07:27:54.351Z,21.03
2023-04-20T07:30:21.395Z,15.73
2023-04-20T07:32:49.713Z,17.57
2023-04-20T07:35:16.632Z,20.27
2023-04-20T07:37:43.465Z,19.17
2023-04-20T07:40:10.773Z,19.67
2023-04-20T07:42:37.710Z,21.23
2023-04-20T07:45:05.929Z,20.23
2023-04-20T07:47:36.031Z,18.70
2023-04-20T07:50:03.713Z,14.77
2023-04-20T07:52:30.692Z,21.70
2023-04-20T07:55:00.346Z,17.03
2023-04-20T07:57:28.102Z,12.50
2023-04-20T07:59:55.173Z,22.07
2023-04-20T08:02:22.299Z,15.90
2023-04-20T08:04:50.129Z,18.70
2023-04-20T08:07:17.814Z,14.23
2023-04-20T08:09:44.792Z,16.40
2023-04-20T08:12:11.652Z,13.07
2023-04-20T08:14:38.491Z,18.23
2023-04-20T08:17:05.597Z,14.30
2023-04-20T08:19:32.531Z,12.07
2023-04-20T08:22:00.635Z,14.43
2023-04-20T08:24:28.273Z,8.70
2023-04-20T08:26:55.159Z,8.00
2023-04-20T08:29:22.011Z,9.73
2023-04-20T08:31:50.631Z,6.83
2023-04-20T08:34:18.414Z,9.90
2023-04-20T08:36:46.500Z,9.90
2023-04-20T08:39:14.890Z,12.80
2023-04-20T08:41:41.824Z,11.33
2023-04-20T08:44:08.804Z,8.30
2023-04-20T08:46:36.116Z,9.30
2023-04-20T08:49:04.200Z,11.70
2023-04-20T08:51:32.560Z,15.33
2023-04-20T08:54:06.269Z,13.30
2023-04-20T08:56:37.248Z,14.43
2023-04-20T08:59:05.513Z,11.23
2023-04-20T09:01:35.622Z,16.03
2023-04-20T09:04:03.742Z,10.40
2023-04-20T09:06:31.595Z,13.33
2023-04-20T09:08:59.475Z,11.93
2023-04-20T09:11:27.552Z,11.73
2023-04-20T09:14:06.696Z,10.73
2023-04-20T09:16:34.958Z,9.40
2023-04-20T09:19:02.068Z,12.50
2023-04-20T09:21:30.472Z,12.03
2023-04-20T09:24:01.055Z,11.33
2023-04-20T09:26:28.248Z,13.40
2023-04-20T09:28:55.165Z,9.93
2023-04-20T09:31:22.743Z,12.00
2023-04-20T09:34:04.546Z,9.23
2023-04-20T09:36:45.359Z,13.13
2023-04-20T09:39:19.679Z,9.60
2023-04-20T09:41:46.696Z,12.40
2023-04-20T09:44:13.861Z,16.93
2023-04-20T09:46:41.553Z,12.00
2023-04-20T09:49:09.655Z,8.33
2023-04-20T09:51:38.440Z,12.53
2023-04-20T09:54:06.360Z,9.70
2023-04-20T09:56:34.663Z,11.33
2023-04-20T09:59:02.018Z,11.07
2023-04-20T10:01:33.712Z,14.10
2023-04-20T10:04:01.749Z,11.70
2023-04-20T10:06:30.846Z,9.07
2023-04-20T10:08:57.899Z,13.63
2023-04-20T10:11:37.068Z,14.87
2023-04-20T10:14:18.898Z,13.33
2023-04-20T10:16:46.817Z,10.43
2023-04-20T10:19:13.756Z,9.97
2023-04-20T10:21:47.865Z,15.80
2023-04-20T10:24:15.490Z,10.40
2023-04-20T10:26:45.244Z,14.20
2023-04-20T10:29:23.531Z,11.13
2023-04-20T10:31:50.859Z,9.67
2023-04-20T10:34:19.388Z,9.30
2023-04-20T10:36:46.664Z,8.77
2023-04-20T10:39:19.381Z,10.17
2023-04-20T10:41:58.520Z,8.67
2023-04-20T10:44:25.775Z,14.20
2023-04-20T10:46:52.990Z,13.40
2023-04-20T10:49:20.047Z,9.03
2023-04-20T10:51:48.528Z,15.50
2023-04-20T10:54:18.176Z,11.60
2023-04-20T10:56:46.170Z,14.43
2023-04-20T10:59:15.130Z,11.67
2023-04-20T11:01:42.190Z,10.27
2023-04-20T11:04:10.734Z,12.67
2023-04-20T11:06:41.906Z,23.17
2023-04-20T11:09:21.810Z,14.87
2023-04-20T11:12:04.837Z,13.80
2023-04-20T11:14:37.673Z,16.33
2023-04-20T11:17:05.099Z,15.50
2023-04-20T11:19:33.203Z,17.50
2023-04-20T11:22:00.924Z,11.57
2023-04-20T11:24:29.355Z,13.23
2023-04-20T11:26:58.122Z,16.33
2023-04-20T11:29:32.010Z,11.97
2023-04-20T11:31:59.531Z,15.07
2023-04-20T11:34:26.927Z,9.20
2023-04-20T11:36:56.779Z,17.10
2023-04-20T11:39:27.438Z,12.10
2023-04-20T11:41:54.501Z,13.43
2023-04-20T11:44:21.881Z,13.30
2023-04-20T11:46:49.384Z,14.43
2023-04-20T11:49:20.172Z,13.10
2023-04-20T11:51:47.519Z,13.63
2023-04-20T11:54:14.720Z,11.93
2023-04-20T11:56:44.971Z,18.30
2023-04-20T11:59:12.214Z,10.17
2023-04-20T12:01:39.175Z,12.47
2023-04-20T12:04:06.340Z,15.37
2023-04-20T12:06:33.392Z,15.43
2023-04-20T12:09:00.505Z,10.23
2023-04-20T12:11:27.497Z,12.80
2023-04-20T12:13:57.084Z,14.57
2023-04-20T12:16:23.963Z,17.07
2023-04-20T12:18:51.175Z,11.50
2023-04-20T12:21:18.108Z,16.67
2023-04-20T12:23:45.047Z,13.27
2023-04-20T12:26:13.311Z,15.13
2023-04-20T12:28:40.205Z,23.67
2023-04-20T12:31:08.152Z,15.03
2023-04-20T12:33:35.234Z,21.17
2023-04-20T12:36:02.081Z,17.97
2023-04-20T12:38:28.943Z,16.53
2023-04-20T12:40:55.881Z,16.43
2023-04-20T12:43:22.748Z,14.43
2023-04-20T12:45:49.588Z,15.87
2023-04-20T12:48:16.547Z,23.47
2023-04-20T12:50:43.725Z,15.83
2023-04-20T12:53:10.923Z,14.40
2023-04-20T12:55:37.842Z,13.00
2023-04-20T12:58:04.725Z,17.77
2023-04-20T13:00:31.670Z,18.37
2023-04-20T13:02:58.949Z,14.83
2023-04-20T13:05:26.014Z,15.53
2023-04-20T13:07:52.903Z,19.83
2023-04-20T13:10:19.802Z,15.43
2023-04-20T13:12:46.670Z,16.77
2023-04-20T13:15:13.605Z,18.87
2023-04-20T13:17:41.485Z,18.83
2023-04-20T13:20:09.127Z,19.03
2023-04-20T13:22:43.569Z,15.73
2023-04-20T13:25:17.667Z,19.70
2023-04-20T13:27:44.559Z,13.07
2023-04-20T13:30:13.106Z,13.07
2023-04-20T13:32:40.044Z,15.00
2023-04-20T13:35:07.596Z,12.67
2023-04-20T13:37:34.581Z,11.47
2023-04-20T13:40:01.636Z,12.90
2023-04-20T13:42:28.959Z,11.00
2023-04-20T13:44:56.145Z,10.67
2023-04-20T13:47:24.198Z,10.07
2023-04-20T13:49:51.233Z,12.93
2023-04-20T13:52:18.177Z,13.33
2023-04-20T13:54:45.044Z,9.83
2023-04-20T13:57:11.945Z,12.13
2023-04-20T13:59:38.849Z,14.17
2023-04-20T14:02:05.825Z,10.43
2023-04-20T14:04:32.740Z,12.07
2023-04-20T14:06:59.943Z,13.73
2023-04-20T14:09:28.518Z,13.73
2023-04-20T14:11:57.018Z,12.53
2023-04-20T14:14:24.750Z,10.37
2023-04-20T14:16:51.884Z,14.30
2023-04-20T14:19:18.767Z,16.03
2023-04-20T14:21:46.767Z,17.50
2023-04-20T14:24:13.925Z,9.60
2023-04-20T14:26:41.413Z,11.70
2023-04-20T14:29:08.336Z,10.60
2023-04-20T14:31:35.548Z,9.30
2023-04-20T14:34:02.680Z,8.80
2023-04-20T14:36:30.201Z,11.83
2023-04-20T14:38:57.089Z,12.23
2023-04-20T14:41:23.986Z,14.10
2023-04-20T14:43:50.848Z,12.73
2023-04-20T14:46:18.867Z,14.53
2023-04-20T14:48:46.370Z,14.00
2023-04-20T14:51:13.724Z,9.83
2023-04-20T14:53:40.702Z,12.80
2023-04-20T14:56:07.829Z,12.20
2023-04-20T14:58:36.092Z,12.00
2023-04-20T15:01:04.345Z,11.77
2023-04-20T15:03:31.409Z,11.00
2023-04-20T15:06:00.829Z,12.50
2023-04-20T15:08:28.023Z,9.07
2023-04-20T15:10:58.101Z,11.10
2023-04-20T15:13:25.000Z,14.30
2023-04-20T15:15:54.748Z,11.03
2023-04-20T15:18:22.259Z,12.27
2023-04-20T15:20:51.468Z,10.23
2023-04-20T15:23:18.420Z,9.30
2023-04-20T15:25:45.346Z,8.73
2023-04-20T15:28:12.264Z,12.37
2023-04-20T15:30:39.169Z,11.30
2023-04-20T15:33:06.199Z,11.60
2023-04-20T15:35:34.383Z,12.10
2023-04-20T15:38:01.276Z,11.17
2023-04-20T15:40:28.199Z,8.50
2023-04-20T15:42:55.800Z,12.47
2023-04-20T15:45:23.137Z,9.77
2023-04-20T15:47:51.348Z,12.10
2023-04-20T15:50:18.465Z,9.40
2023-04-20T15:52:45.847Z,13.23
2023-04-20T15:55:12.839Z,15.17
2023-04-20T15:57:39.758Z,10.43
2023-04-20T16:00:08.309Z,8.97
2023-04-20T16:02:41.059Z,15.10
2023-04-20T16:05:09.130Z,12.17
2023-04-20T16:07:36.023Z,11.73
2023-04-20T16:10:03.163Z,11.90
2023-04-20T16:12:30.162Z,10.00
2023-04-20T16:14:57.395Z,10.03
2023-04-20T16:17:24.480Z,12.33
2023-04-20T16:19:51.482Z,11.83
2023-04-20T16:22:18.461Z,9.27
2023-04-20T16:24:45.492Z,13.37
2023-04-20T16:27:12.356Z,14.63
2023-04-20T16:29:39.303Z,12.43
2023-04-20T16:32:06.617Z,13.57
2023-04-20T16:34:33.585Z,11.67
2023-04-20T16:37:00.803Z,12.47
2023-04-20T16:39:27.651Z,9.97
2023-04-20T16:41:54.662Z,10.50
2023-04-20T16:44:21.688Z,13.03
2023-04-20T16:46:51.734Z,13.97
2023-04-20T16:49:18.784Z,9.90
2023-04-20T16:51:45.749Z,11.07
2023-04-20T16:54:12.989Z,10.77
2023-04-20T16:56:40.352Z,10.23
2023-04-20T16:59:08.022Z,12.33
2023-04-20T17:01:35.078Z,15.53
2023-04-20T17:04:02.488Z,9.00
2023-04-20T17:06:29.574Z,15.00
2023-04-20T17:09:01.501Z,9.07
2023-04-20T17:11:28.471Z,12.97
2023-04-20T17:13:55.320Z,10.17
2023-04-20T17:16:22.259Z,14.30
2023-04-20T17:18:49.187Z,10.77
2023-04-20T17:21:16.252Z,12.53
2023-04-20T17:23:43.210Z,13.17
2023-04-20T17:26:10.091Z,9.63
2023-04-20T17:28:36.983Z,9.90
2023-04-20T17:31:03.864Z,9.90
2023-04-20T17:33:30.747Z,13.53
2023-04-20T17:35:57.708Z,13.47
2023-04-20T17:38:24.723Z,11.23
2023-04-20T17:40:51.652Z,9.63
2023-04-20T17:43:19.037Z,10.63
2023-04-20T17:45:48.317Z,10.23
2023-04-20T17:48:15.241Z,9.13
2023-04-20T17:50:42.159Z,10.17
2023-04-20T17:53:09.056Z,9.60
2023-04-20T17:55:36.050Z,10.43
2023-04-20T17:58:03.115Z,13.23
2023-04-20T18:00:30.090Z,9.20
2023-04-20T18:02:57.140Z,9.23
2023-04-20T18:05:24.178Z,11.17
2023-04-20T18:07:51.168Z,10.30
2023-04-20T18:10:18.140Z,8.80
2023-04-20T18:12:45.207Z,12.13
2023-04-20T18:15:12.527Z,16.20
2023-04-20T18:17:39.575Z,11.07
2023-04-20T18:20:08.557Z,11.20
2023-04-20T18:22:36.865Z,9.60
2023-04-20T18:25:04.367Z,11.23
2023-04-20T18:27:31.540Z,13.67
2023-04-20T18:30:01.392Z,13.10
2023-04-20T18:32:28.350Z,11.47
2023-04-20T18:34:55.401Z,14.30
2023-04-20T18:37:22.349Z,10.67
2023-04-20T18:39:49.255Z,11.30
2023-04-20T18:42:16.294Z,16.43
2023-04-20T18:44:43.233Z,15.00
2023-04-20T18:47:10.277Z,12.93
2023-04-20T18:49:37.185Z,12.93
2023-04-20T18:52:04.243Z,15.77
2023-04-20T18:54:31.268Z,15.97
2023-04-20T18:56:58.359Z,13.90
2023-04-20T18:59:25.290Z,14.77
2023-04-20T19:01:52.667Z,13.27
2023-04-20T19:04:21.016Z,17.63
2023-04-20T19:06:48.316Z,15.50
2023-04-20T19:09:15.299Z,13.37
2023-04-20T19:11:42.775Z,15.93
2023-04-20T19:14:10.140Z,17.93
2023-04-20T19:16:37.238Z,15.90
2023-04-20T19:19:04.257Z,16.73
2023-04-20T19:21:32.753Z,16.87
2023-04-20T19:23:59.691Z,16.13
2023-04-20T19:26:26.530Z,18.53
2023-04-20T19:28:53.531Z,17.17
2023-04-20T19:31:20.789Z,18.37
2023-04-20T19:33:47.768Z,17.37
2023-04-20T19:36:14.689Z,17.30
2023-04-20T19:38:41.649Z,15.70
2023-04-20T19:41:08.601Z,16.47
2023-04-20T19:43:36.492Z,23.53
2023-04-20T19:46:04.012Z,16.47
2023-04-20T19:48:30.995Z,15.50
2023-04-20T19:50:59.272Z,17.63
2023-04-20T19:53:27.088Z,19.83
2023-04-20T19:55:53.925Z,23.23
2023-04-20T19:58:21.711Z,18.77
2023-04-20T20:00:48.648Z,17.07
2023-04-20T20:03:16.163Z,16.93
2023-04-20T20:05:43.700Z,19.17
2023-04-20T20:08:11.768Z,21.63
2023-04-20T20:10:38.671Z,20.13
2023-04-20T20:13:05.777Z,19.40
2023-04-20T20:15:32.753Z,19.17
2023-04-20T20:17:59.770Z,18.00
2023-04-20T20:20:33.072Z,19.93
2023-04-20T20:23:00.124Z,24.10
2023-04-20T20:25:27.279Z,33.07
2023-04-20T20:27:54.238Z,21.00
2023-04-20T20:30:21.233Z,21.37
2023-04-20T20:32:48.223Z,17.33
2023-04-20T20:35:15.282Z,18.63
2023-04-20T20:37:42.184Z,17.97
2023-04-20T20:40:14.468Z,17.03
2023-04-20T20:42:45.263Z,20.33
2023-04-20T20:45:12.908Z,19.53
2023-04-20T20:47:41.055Z,17.97
2023-04-20T20:50:08.768Z,17.87
2023-04-20T20:52:35.693Z,16.80
2023-04-20T20:55:02.652Z,19.47
2023-04-20T20:57:29.795Z,18.70
2023-04-20T20:59:56.664Z,16.63
2023-04-20T21:02:23.577Z,17.30
2023-04-20T21:04:50.715Z,18.90
2023-04-20T21:07:17.567Z,22.60
2023-04-20T21:09:44.434Z,16.50
2023-04-20T21:12:11.306Z,15.67
2023-04-20T21:14:38.268Z,19.33
2023-04-20T21:17:05.354Z,16.93
2023-04-20T21:19:32.394Z,23.47
2023-04-20T21:21:59.345Z,20.63
2023-04-20T21:24:26.571Z,16.20
2023-04-20T21:26:53.448Z,17.77
2023-04-20T21:29:20.653Z,18.33
2023-04-20T21:31:47.818Z,16.93
2023-04-20T21:34:14.700Z,20.77
2023-04-20T21:36:41.591Z,21.27
2023-04-20T21:39:08.452Z,19.90
2023-04-20T21:41:35.306Z,17.77
2023-04-20T21:44:02.678Z,18.90
2023-04-20T21:46:29.712Z,21.70
2023-04-20T21:48:56.735Z,18.13
2023-04-20T21:51:23.705Z,16.57
2023-04-20T21:53:50.582Z,24.67
2023-04-20T21:56:18.448Z,18.53
2023-04-20T21:58:45.342Z,16.87
2023-04-20T22:01:12.268Z,18.50
2023-04-20T22:03:39.451Z,18.60
2023-04-20T22:06:07.128Z,19.77
2023-04-20T22:08:33.976Z,20.37
2023-04-20T22:11:00.914Z,19.47
2023-04-20T22:13:27.770Z,18.47
2023-04-20T22:15:54.880Z,26.27
2023-04-20T22:18:22.206Z,24.87
2023-04-20T22:20:49.478Z,19.47
2023-04-20T22:23:16.370Z,21.37
2023-04-20T22:25:43.414Z,23.07
2023-04-20T22:28:11.295Z,22.13
2023-04-20T22:30:38.174Z,24.17
2023-04-20T22:33:05.137Z,22.13
2023-04-20T22:35:32.043Z,21.57
2023-04-20T22:37:59.407Z,18.10
2023-04-20T22:40:27.059Z,20.23
2023-04-20T22:42:53.959Z,18.73
2023-04-20T22:45:21.245Z,23.03
2023-04-20T22:47:49.324Z,20.47
2023-04-20T22:50:16.331Z,19.33
2023-04-20T22:52:43.209Z,22.43
2023-04-20T22:55:10.664Z,32.30
2023-04-20T22:57:38.967Z,18.00
2023-04-20T23:00:10.784Z,17.00
2023-04-20T23:02:38.129Z,16.53
2023-04-20T23:05:05.805Z,19.63
2023-04-20T23:07:33.122Z,17.10
2023-04-20T23:10:00.252Z,20.40
2023-04-20T23:12:29.582Z,18.63
2023-04-20T23:15:00.548Z,16.13
2023-04-20T23:17:28.324Z,16.87
2023-04-20T23:19:55.510Z,16.33
2023-04-20T23:22:22.402Z,19.70
2023-04-20T23:24:49.341Z,20.07
2023-04-20T23:27:16.236Z,16.93
2023-04-20T23:29:43.143Z,18.07
2023-04-20T23:32:10.156Z,20.13
2023-04-20T23:34:37.151Z,17.40
2023-04-20T23:37:04.051Z,17.57
2023-04-20T23:39:30.974Z,17.67
2023-04-20T23:41:58.108Z,18.87
2023-04-20T23:44:25.070Z,17.50
2023-04-20T23:46:51.894Z,16.50
2023-04-20T23:49:19.068Z,16.40
2023-04-20T23:51:46.206Z,15.90
2023-04-20T23:54:13.047Z,17.90
2023-04-20T23:56:39.939Z,17.53
2023-04-20T23:59:06.796Z,16.07
